sensor_id;sensor_type;location;lat;lon;timestamp;pressure;altitude;pressure_sealevel;temperature;humidity
43707;BME280;61348;53.392;-6.248;2023-01-30T21:01:22;101716.94;;;7.37;84.92
43707;BME280;61348;53.392;-6.248;2023-01-30T21:03:51;101713.69;;;7.35;85.07
43707;BME280;61348;53.392;-6.248;2023-01-30T21:06:20;101717.53;;;7.34;85.29
43707;BME280;61348;53.392;-6.248;2023-01-30T21:09:12;101723.38;;;7.32;85.20
43707;BME280;61348;53.392;-6.248;2023-01-30T21:11:39;101708.75;;;7.32;85.30
43707;BME280;61348;53.392;-6.248;2023-01-30T21:14:05;101708.75;;;7.32;85.30
43707;BME280;61348;53.392;-6.248;2023-01-30T21:16:34;101713.16;;;7.33;85.38
43707;BME280;61348;53.392;-6.248;2023-01-30T21:19:03;101711.94;;;7.39;85.41
43707;BME280;61348;53.392;-6.248;2023-01-30T21:24:00;101713.72;;;7.49;85.44
43707;BME280;61348;53.392;-6.248;2023-01-30T21:26:30;101700.69;;;7.54;85.50
43707;BME280;61348;53.392;-6.248;2023-01-30T21:28:59;101706.13;;;7.59;85.56
43707;BME280;61348;53.392;-6.248;2023-01-30T21:31:29;101708.28;;;7.62;85.57
43707;BME280;61348;53.392;-6.248;2023-01-30T21:33:57;101723.66;;;7.63;85.51
43707;BME280;61348;53.392;-6.248;2023-01-30T21:36:25;101705.50;;;7.62;85.79
43707;BME280;61348;53.392;-6.248;2023-01-30T21:38:53;101709.38;;;7.61;85.83
43707;BME280;61348;53.392;-6.248;2023-01-30T21:41:41;101700.59;;;7.59;86.16
43707;BME280;61348;53.392;-6.248;2023-01-30T21:44:31;101685.78;;;7.55;86.47
43707;BME280;61348;53.392;-6.248;2023-01-30T21:46:58;101698.22;;;7.53;86.48
43707;BME280;61348;53.392;-6.248;2023-01-30T21:49:25;101687.00;;;7.49;86.56
43707;BME280;61348;53.392;-6.248;2023-01-30T21:51:52;101683.72;;;7.47;86.58
43707;BME280;61348;53.392;-6.248;2023-01-30T21:54:20;101674.34;;;7.48;86.75
43707;BME280;61348;53.392;-6.248;2023-01-30T21:56:48;101687.59;;;7.46;86.91
43707;BME280;61348;53.392;-6.248;2023-01-30T21:59:15;101673.81;;;7.46;86.82
43707;BME280;61348;53.392;-6.248;2023-01-30T22:01:42;101680.13;;;7.47;86.92
43707;BME280;61348;53.392;-6.248;2023-01-30T22:04:12;101663.31;;;7.48;87.00
43707;BME280;61348;53.392;-6.248;2023-01-30T22:06:42;101659.44;;;7.49;87.02
43707;BME280;61348;53.392;-6.248;2023-01-30T22:09:12;101659.97;;;7.51;87.00
43707;BME280;61348;53.392;-6.248;2023-01-30T22:11:40;101651.38;;;7.53;86.95
43707;BME280;61348;53.392;-6.248;2023-01-30T22:14:06;101652.72;;;7.55;86.92
43707;BME280;61348;53.392;-6.248;2023-01-30T22:16:33;101635.88;;;7.57;87.04
43707;BME280;61348;53.392;-6.248;2023-01-30T22:19:02;101637.00;;;7.56;86.88
43707;BME280;61348;53.392;-6.248;2023-01-30T22:21:33;101645.59;;;7.54;86.98
43707;BME280;61348;53.392;-6.248;2023-01-30T22:24:01;101649.44;;;7.53;87.11
43707;BME280;61348;53.392;-6.248;2023-01-30T22:26:28;101651.69;;;7.51;87.16
43707;BME280;61348;53.392;-6.248;2023-01-30T22:28:57;101653.94;;;7.49;87.21
43707;BME280;61348;53.392;-6.248;2023-01-30T22:31:26;101648.44;;;7.49;87.27
43707;BME280;61348;53.392;-6.248;2023-01-30T22:33:54;101647.28;;;7.50;87.18
43707;BME280;61348;53.392;-6.248;2023-01-30T22:36:23;101643.44;;;7.51;87.28
43707;BME280;61348;53.392;-6.248;2023-01-30T22:38:51;101647.81;;;7.52;87.39
43707;BME280;61348;53.392;-6.248;2023-01-30T22:41:23;101642.28;;;7.52;87.44
43707;BME280;61348;53.392;-6.248;2023-01-30T22:43:55;101643.13;;;7.53;87.42
43707;BME280;61348;53.392;-6.248;2023-01-30T22:46:23;101639.53;;;7.52;87.44
43707;BME280;61348;53.392;-6.248;2023-01-30T22:48:51;101629.66;;;7.51;87.25
43707;BME280;61348;53.392;-6.248;2023-01-30T22:51:26;101625.25;;;7.50;87.39
43707;BME280;61348;53.392;-6.248;2023-01-30T22:53:56;101632.50;;;7.46;87.34
43707;BME280;61348;53.392;-6.248;2023-01-30T22:56:35;101633.09;;;7.43;87.63
43707;BME280;61348;53.392;-6.248;2023-01-30T22:59:03;101631.97;;;7.44;87.58
43707;BME280;61348;53.392;-6.248;2023-01-30T23:01:35;101623.69;;;7.44;87.69
43707;BME280;61348;53.392;-6.248;2023-01-30T23:04:06;101630.03;;;7.45;87.58
43707;BME280;61348;53.392;-6.248;2023-01-30T23:06:33;101629.22;;;7.44;87.63
43707;BME280;61348;53.392;-6.248;2023-01-30T23:09:00;101620.94;;;7.44;87.75
43707;BME280;61348;53.392;-6.248;2023-01-30T23:11:42;101610.47;;;7.46;87.78
43707;BME280;61348;53.392;-6.248;2023-01-30T23:14:12;101619.50;;;7.47;87.80
43707;BME280;61348;53.392;-6.248;2023-01-30T23:16:41;101608.22;;;7.48;87.98
43707;BME280;61348;53.392;-6.248;2023-01-30T23:19:10;101611.47;;;7.50;87.90
43707;BME280;61348;53.392;-6.248;2023-01-30T23:21:43;101613.94;;;7.52;88.06
43707;BME280;61348;53.392;-6.248;2023-01-30T23:24:18;101603.72;;;7.52;87.88
43707;BME280;61348;53.392;-6.248;2023-01-30T23:26:49;101603.72;;;7.52;88.00
43707;BME280;61348;53.392;-6.248;2023-01-30T23:29:18;101596.59;;;7.51;88.00
43707;BME280;61348;53.392;-6.248;2023-01-30T23:31:46;101597.41;;;7.52;88.29
43707;BME280;61348;53.392;-6.248;2023-01-30T23:34:17;101593.84;;;7.51;88.29
43707;BME280;61348;53.392;-6.248;2023-01-30T23:36:44;101596.59;;;7.51;88.44
43707;BME280;61348;53.392;-6.248;2023-01-30T23:39:12;101600.78;;;7.49;88.59
43707;BME280;61348;53.392;-6.248;2023-01-30T23:41:40;101599.94;;;7.48;88.77
43707;BME280;61348;53.392;-6.248;2023-01-30T23:44:08;101579.00;;;7.47;89.05
43707;BME280;61348;53.392;-6.248;2023-01-30T23:46:37;101579.00;;;7.47;89.15
43707;BME280;61348;53.392;-6.248;2023-01-30T23:49:10;101581.47;;;7.49;89.08
43707;BME280;61348;53.392;-6.248;2023-01-30T23:51:39;101571.28;;;7.49;89.16
43707;BME280;61348;53.392;-6.248;2023-01-30T23:54:06;101572.91;;;7.50;89.29
43707;BME280;61348;53.392;-6.248;2023-01-30T23:56:35;101571.28;;;7.49;89.47
43707;BME280;61348;53.392;-6.248;2023-01-30T23:59:03;101558.84;;;7.52;89.56
